This is the latest recevied weather packets stored in our database for station/object LRTM. If no packets are shown the sender has not sent any weather packets the latest 1 day(s).
| Time | Temp. | Humidity | Pressure | Rain* | Wind** | Luminosity | Snow |
|---|---|---|---|---|---|---|---|
| 1778082507 | 27.22° C | 26% | 1010 hPa | - | - | - | - |
| 1778080706 | 27.78° C | 23% | 1011 hPa | - | - | - | - |
| 1778078018 | 27.78° C | 25% | 1011 hPa | - | - | - | - |
| 1778077106 | 27.78° C | 25% | 1011 hPa | - | - | - | - |
| 1778073506 | 27.22° C | 24% | 1011 hPa | - | - | - | - |
| 1778072615 | 27.22° C | 24% | 1011 hPa | - | - | - | - |
| 1778071707 | 27.78° C | 26% | 1012 hPa | - | - | - | - |
| 1778069907 | 27.22° C | 26% | 1012 hPa | - | - | - | - |
| 1778068106 | 27.22° C | 26% | 1012 hPa | - | - | - | - |
| 1778067207 | 27.22° C | 26% | 1012 hPa | - | - | - | - |
| 1778066306 | 26.11° C | 30% | 1013 hPa | - | - | - | - |
| 1778060006 | 25° C | 34% | 1014 hPa | - | - | - | - |
| 1778056406 | 22.22° C | 41% | 1014 hPa | - | - | - | - |
| 1778055503 | 21.11° C | 46% | 1014 hPa | - | - | - | - |
| 1778053707 | 18.89° C | 52% | 1014 hPa | - | - | - | - |
| 1778051906 | 17.22° C | 59% | 1014 hPa | - | - | - | - |
| 1778051006 | 17.22° C | 59% | 1014 hPa | - | - | - | - |
| 1778049206 | 15° C | 63% | 1014 hPa | - | - | - | - |
| 1778047408 | 13.89° C | 63% | 1014 hPa | - | - | - | - |
| 1778046507 | 12.22° C | 67% | 1014 hPa | - | - | - | - |
| 1778044707 | 10° C | 76% | 1014 hPa | - | - | - | - |
| 1778043820 | 10° C | 76% | 1014 hPa | - | - | - | - |
| 1778042922 | 8.89° C | 76% | 1014 hPa | - | - | - | - |
| 1778042010 | 8.89° C | 76% | 1014 hPa | - | - | - | - |
| 1778041108 | 7.78° C | 82% | 1014 hPa | - | - | - | - |
* Rain since midnight (hover to see other rain measurements)
** Current wind speed in m/s (hover to see current wind gust speed)